sensor_id;sensor_type;location;lat;lon;timestamp;P1;durP1;ratioP1;P2;durP2;ratioP2
2039;SDS011;1025;42.686;23.350;2022-12-20T00:00:41;8.68;;;5.10;;
2039;SDS011;1025;42.686;23.350;2022-12-20T00:03:08;4.93;;;4.18;;
2039;SDS011;1025;42.686;23.350;2022-12-20T00:05:36;6.60;;;4.30;;
2039;SDS011;1025;42.686;23.350;2022-12-20T00:08:02;6.90;;;5.95;;
2039;SDS011;1025;42.686;23.350;2022-12-20T00:10:29;5.77;;;5.27;;
2039;SDS011;1025;42.686;23.350;2022-12-20T00:12:56;5.63;;;5.13;;
2039;SDS011;1025;42.686;23.350;2022-12-20T00:15:22;6.23;;;5.73;;
2039;SDS011;1025;42.686;23.350;2022-12-20T00:17:49;4.13;;;3.90;;
2039;SDS011;1025;42.686;23.350;2022-12-20T00:20:16;5.78;;;5.30;;
2039;SDS011;1025;42.686;23.350;2022-12-20T00:22:44;6.75;;;6.00;;
2039;SDS011;1025;42.686;23.350;2022-12-20T00:25:10;5.67;;;5.10;;
2039;SDS011;1025;42.686;23.350;2022-12-20T00:27:37;4.70;;;4.10;;
2039;SDS011;1025;42.686;23.350;2022-12-20T00:30:04;5.70;;;5.20;;
2039;SDS011;1025;42.686;23.350;2022-12-20T00:32:31;5.45;;;4.95;;
2039;SDS011;1025;42.686;23.350;2022-12-20T00:34:58;4.60;;;4.30;;
2039;SDS011;1025;42.686;23.350;2022-12-20T00:37:24;4.37;;;4.00;;
2039;SDS011;1025;42.686;23.350;2022-12-20T00:39:52;4.77;;;4.37;;
2039;SDS011;1025;42.686;23.350;2022-12-20T00:42:19;3.90;;;3.33;;
2039;SDS011;1025;42.686;23.350;2022-12-20T00:44:45;4.43;;;4.03;;
2039;SDS011;1025;42.686;23.350;2022-12-20T00:47:12;2.75;;;2.55;;
2039;SDS011;1025;42.686;23.350;2022-12-20T00:49:38;5.10;;;4.70;;
2039;SDS011;1025;42.686;23.350;2022-12-20T00:52:05;3.97;;;3.67;;
2039;SDS011;1025;42.686;23.350;2022-12-20T00:54:31;3.30;;;3.03;;
2039;SDS011;1025;42.686;23.350;2022-12-20T00:56:59;3.13;;;2.92;;
2039;SDS011;1025;42.686;23.350;2022-12-20T00:59:26;3.53;;;3.33;;
2039;SDS011;1025;42.686;23.350;2022-12-20T01:01:52;4.68;;;4.28;;
2039;SDS011;1025;42.686;23.350;2022-12-20T01:04:19;4.65;;;4.25;;
2039;SDS011;1025;42.686;23.350;2022-12-20T01:06:45;4.70;;;3.97;;
2039;SDS011;1025;42.686;23.350;2022-12-20T01:09:12;3.70;;;3.20;;
2039;SDS011;1025;42.686;23.350;2022-12-20T01:11:39;4.40;;;3.90;;
2039;SDS011;1025;42.686;23.350;2022-12-20T01:14:07;7.13;;;5.10;;
2039;SDS011;1025;42.686;23.350;2022-12-20T01:16:36;4.30;;;3.93;;
2039;SDS011;1025;42.686;23.350;2022-12-20T01:19:04;1.63;;;1.50;;
2039;SDS011;1025;42.686;23.350;2022-12-20T01:21:31;3.53;;;3.30;;
2039;SDS011;1025;42.686;23.350;2022-12-20T01:23:58;0.90;;;0.90;;
2039;SDS011;1025;42.686;23.350;2022-12-20T01:26:25;5.55;;;4.88;;
2039;SDS011;1025;42.686;23.350;2022-12-20T01:28:53;4.53;;;4.28;;
2039;SDS011;1025;42.686;23.350;2022-12-20T01:31:21;3.80;;;3.60;;
2039;SDS011;1025;42.686;23.350;2022-12-20T01:33:48;5.03;;;4.50;;
2039;SDS011;1025;42.686;23.350;2022-12-20T01:36:16;7.83;;;5.40;;
2039;SDS011;1025;42.686;23.350;2022-12-20T01:38:43;2.10;;;2.00;;
2039;SDS011;1025;42.686;23.350;2022-12-20T01:41:10;5.22;;;3.53;;
2039;SDS011;1025;42.686;23.350;2022-12-20T01:43:46;3.37;;;3.17;;
2039;SDS011;1025;42.686;23.350;2022-12-20T01:46:13;3.13;;;2.93;;
2039;SDS011;1025;42.686;23.350;2022-12-20T01:48:41;6.10;;;5.70;;
2039;SDS011;1025;42.686;23.350;2022-12-20T01:51:09;5.57;;;5.00;;
2039;SDS011;1025;42.686;23.350;2022-12-20T01:53:35;1.40;;;1.30;;
2039;SDS011;1025;42.686;23.350;2022-12-20T01:56:02;1.90;;;1.83;;
2039;SDS011;1025;42.686;23.350;2022-12-20T01:58:30;4.07;;;3.70;;
2039;SDS011;1025;42.686;23.350;2022-12-20T02:00:56;2.00;;;1.90;;
2039;SDS011;1025;42.686;23.350;2022-12-20T02:03:23;2.33;;;2.23;;
2039;SDS011;1025;42.686;23.350;2022-12-20T02:05:51;4.20;;;3.90;;
2039;SDS011;1025;42.686;23.350;2022-12-20T02:08:18;3.40;;;3.20;;
2039;SDS011;1025;42.686;23.350;2022-12-20T02:10:49;4.70;;;3.50;;
2039;SDS011;1025;42.686;23.350;2022-12-20T02:13:18;7.47;;;2.80;;
2039;SDS011;1025;42.686;23.350;2022-12-20T02:15:48;2.93;;;2.83;;
2039;SDS011;1025;42.686;23.350;2022-12-20T02:18:19;2.63;;;2.42;;
2039;SDS011;1025;42.686;23.350;2022-12-20T02:21:03;6.22;;;5.68;;
2039;SDS011;1025;42.686;23.350;2022-12-20T02:23:34;4.93;;;4.33;;
2039;SDS011;1025;42.686;23.350;2022-12-20T02:26:10;5.60;;;4.20;;
2039;SDS011;1025;42.686;23.350;2022-12-20T02:28:46;4.73;;;4.33;;
2039;SDS011;1025;42.686;23.350;2022-12-20T02:31:20;3.23;;;3.03;;
2039;SDS011;1025;42.686;23.350;2022-12-20T02:33:50;4.43;;;3.83;;
2039;SDS011;1025;42.686;23.350;2022-12-20T02:36:17;4.60;;;4.20;;
2039;SDS011;1025;42.686;23.350;2022-12-20T02:38:44;5.83;;;4.00;;
2039;SDS011;1025;42.686;23.350;2022-12-20T02:41:11;8.20;;;5.17;;
2039;SDS011;1025;42.686;23.350;2022-12-20T02:43:40;3.53;;;3.13;;
2039;SDS011;1025;42.686;23.350;2022-12-20T02:46:27;5.37;;;4.20;;
2039;SDS011;1025;42.686;23.350;2022-12-20T02:48:54;5.47;;;3.72;;
2039;SDS011;1025;42.686;23.350;2022-12-20T02:51:22;5.43;;;4.93;;
2039;SDS011;1025;42.686;23.350;2022-12-20T02:53:49;4.60;;;4.20;;
2039;SDS011;1025;42.686;23.350;2022-12-20T02:56:18;3.90;;;3.60;;
2039;SDS011;1025;42.686;23.350;2022-12-20T02:58:48;4.68;;;4.38;;
2039;SDS011;1025;42.686;23.350;2022-12-20T03:01:16;3.10;;;2.80;;
2039;SDS011;1025;42.686;23.350;2022-12-20T03:03:46;6.60;;;5.90;;
2039;SDS011;1025;42.686;23.350;2022-12-20T03:06:13;6.43;;;4.33;;
2039;SDS011;1025;42.686;23.350;2022-12-20T03:08:39;2.70;;;2.50;;
2039;SDS011;1025;42.686;23.350;2022-12-20T03:11:06;16.02;;;6.00;;
2039;SDS011;1025;42.686;23.350;2022-12-20T03:13:32;5.80;;;5.23;;
2039;SDS011;1025;42.686;23.350;2022-12-20T03:15:59;6.30;;;5.53;;
2039;SDS011;1025;42.686;23.350;2022-12-20T03:18:25;5.05;;;4.72;;
2039;SDS011;1025;42.686;23.350;2022-12-20T03:20:53;7.93;;;5.50;;
2039;SDS011;1025;42.686;23.350;2022-12-20T03:23:21;4.57;;;4.25;;
2039;SDS011;1025;42.686;23.350;2022-12-20T03:25:48;3.30;;;3.07;;
2039;SDS011;1025;42.686;23.350;2022-12-20T03:28:14;5.07;;;4.72;;
2039;SDS011;1025;42.686;23.350;2022-12-20T03:30:41;6.07;;;5.10;;
2039;SDS011;1025;42.686;23.350;2022-12-20T03:33:08;7.60;;;6.63;;
2039;SDS011;1025;42.686;23.350;2022-12-20T03:35:34;3.37;;;3.20;;
2039;SDS011;1025;42.686;23.350;2022-12-20T03:38:02;5.70;;;5.20;;
2039;SDS011;1025;42.686;23.350;2022-12-20T03:40:29;1.77;;;1.67;;
2039;SDS011;1025;42.686;23.350;2022-12-20T03:42:55;2.43;;;2.10;;
2039;SDS011;1025;42.686;23.350;2022-12-20T03:45:22;4.75;;;4.45;;
2039;SDS011;1025;42.686;23.350;2022-12-20T03:47:48;5.00;;;4.70;;
2039;SDS011;1025;42.686;23.350;2022-12-20T03:50:15;4.72;;;4.43;;
2039;SDS011;1025;42.686;23.350;2022-12-20T03:52:42;4.53;;;4.22;;
2039;SDS011;1025;42.686;23.350;2022-12-20T03:55:10;3.83;;;3.53;;
2039;SDS011;1025;42.686;23.350;2022-12-20T03:57:37;4.88;;;4.55;;
2039;SDS011;1025;42.686;23.350;2022-12-20T04:00:04;8.25;;;3.70;;
2039;SDS011;1025;42.686;23.350;2022-12-20T04:02:32;5.70;;;5.30;;
2039;SDS011;1025;42.686;23.350;2022-12-20T04:04:58;4.37;;;4.07;;
2039;SDS011;1025;42.686;23.350;2022-12-20T04:07:25;5.43;;;4.90;;
2039;SDS011;1025;42.686;23.350;2022-12-20T04:09:51;5.72;;;5.30;;
2039;SDS011;1025;42.686;23.350;2022-12-20T04:12:19;3.97;;;3.67;;
2039;SDS011;1025;42.686;23.350;2022-12-20T04:14:46;6.43;;;5.93;;
2039;SDS011;1025;42.686;23.350;2022-12-20T04:17:12;5.40;;;4.90;;
2039;SDS011;1025;42.686;23.350;2022-12-20T04:19:39;5.60;;;5.15;;
2039;SDS011;1025;42.686;23.350;2022-12-20T04:22:05;7.72;;;3.20;;
2039;SDS011;1025;42.686;23.350;2022-12-20T04:24:32;3.00;;;2.90;;
2039;SDS011;1025;42.686;23.350;2022-12-20T04:26:58;5.53;;;5.03;;
2039;SDS011;1025;42.686;23.350;2022-12-20T04:29:26;7.47;;;6.93;;
2039;SDS011;1025;42.686;23.350;2022-12-20T04:31:53;5.60;;;5.20;;
2039;SDS011;1025;42.686;23.350;2022-12-20T04:34:19;5.03;;;4.70;;
2039;SDS011;1025;42.686;23.350;2022-12-20T04:36:46;7.78;;;7.07;;
2039;SDS011;1025;42.686;23.350;2022-12-20T04:39:13;7.65;;;7.05;;
2039;SDS011;1025;42.686;23.350;2022-12-20T04:41:39;5.68;;;5.18;;
2039;SDS011;1025;42.686;23.350;2022-12-20T04:44:06;6.90;;;5.57;;
2039;SDS011;1025;42.686;23.350;2022-12-20T04:46:34;5.93;;;5.50;;
2039;SDS011;1025;42.686;23.350;2022-12-20T04:49:00;6.35;;;5.72;;
2039;SDS011;1025;42.686;23.350;2022-12-20T04:51:27;6.82;;;5.75;;
2039;SDS011;1025;42.686;23.350;2022-12-20T04:53:54;5.60;;;5.10;;
2039;SDS011;1025;42.686;23.350;2022-12-20T04:56:20;8.90;;;5.63;;
2039;SDS011;1025;42.686;23.350;2022-12-20T04:58:48;6.13;;;5.60;;
2039;SDS011;1025;42.686;23.350;2022-12-20T05:01:15;5.78;;;5.38;;
2039;SDS011;1025;42.686;23.350;2022-12-20T05:03:43;5.47;;;5.07;;
2039;SDS011;1025;42.686;23.350;2022-12-20T05:06:10;7.40;;;6.77;;
2039;SDS011;1025;42.686;23.350;2022-12-20T05:08:37;5.15;;;4.85;;
2039;SDS011;1025;42.686;23.350;2022-12-20T05:11:04;8.20;;;7.50;;
2039;SDS011;1025;42.686;23.350;2022-12-20T05:13:31;6.67;;;6.27;;
2039;SDS011;1025;42.686;23.350;2022-12-20T05:15:58;5.68;;;5.30;;
2039;SDS011;1025;42.686;23.350;2022-12-20T05:18:25;5.28;;;4.82;;
2039;SDS011;1025;42.686;23.350;2022-12-20T05:20:54;4.50;;;4.15;;
2039;SDS011;1025;42.686;23.350;2022-12-20T05:23:35;6.78;;;5.90;;
2039;SDS011;1025;42.686;23.350;2022-12-20T05:26:19;8.30;;;7.50;;
2039;SDS011;1025;42.686;23.350;2022-12-20T05:28:46;7.07;;;6.38;;
2039;SDS011;1025;42.686;23.350;2022-12-20T05:31:13;5.88;;;5.45;;
2039;SDS011;1025;42.686;23.350;2022-12-20T05:33:39;10.98;;;6.63;;
2039;SDS011;1025;42.686;23.350;2022-12-20T05:36:07;4.68;;;4.38;;
2039;SDS011;1025;42.686;23.350;2022-12-20T05:38:35;4.15;;;3.85;;
2039;SDS011;1025;42.686;23.350;2022-12-20T05:41:02;6.60;;;6.10;;
2039;SDS011;1025;42.686;23.350;2022-12-20T05:43:30;6.57;;;6.10;;
2039;SDS011;1025;42.686;23.350;2022-12-20T05:45:57;8.65;;;5.40;;
2039;SDS011;1025;42.686;23.350;2022-12-20T05:48:24;3.58;;;3.28;;
2039;SDS011;1025;42.686;23.350;2022-12-20T05:50:50;8.32;;;7.50;;
2039;SDS011;1025;42.686;23.350;2022-12-20T05:53:18;5.32;;;4.93;;
2039;SDS011;1025;42.686;23.350;2022-12-20T05:55:46;6.88;;;6.35;;
2039;SDS011;1025;42.686;23.350;2022-12-20T05:58:13;6.47;;;5.82;;
2039;SDS011;1025;42.686;23.350;2022-12-20T06:00:40;5.60;;;5.20;;
2039;SDS011;1025;42.686;23.350;2022-12-20T06:03:06;15.02;;;6.65;;
2039;SDS011;1025;42.686;23.350;2022-12-20T06:05:34;9.85;;;6.10;;
2039;SDS011;1025;42.686;23.350;2022-12-20T06:08:01;4.75;;;4.40;;
2039;SDS011;1025;42.686;23.350;2022-12-20T06:10:29;6.07;;;5.63;;
2039;SDS011;1025;42.686;23.350;2022-12-20T06:12:55;4.38;;;3.97;;
2039;SDS011;1025;42.686;23.350;2022-12-20T06:15:22;11.65;;;7.25;;
2039;SDS011;1025;42.686;23.350;2022-12-20T06:17:48;8.35;;;7.65;;
2039;SDS011;1025;42.686;23.350;2022-12-20T06:20:15;5.70;;;5.40;;
2039;SDS011;1025;42.686;23.350;2022-12-20T06:22:41;8.87;;;6.37;;
2039;SDS011;1025;42.686;23.350;2022-12-20T06:25:08;7.68;;;7.03;;
2039;SDS011;1025;42.686;23.350;2022-12-20T06:27:37;6.43;;;5.93;;
2039;SDS011;1025;42.686;23.350;2022-12-20T06:30:04;11.57;;;6.25;;
2039;SDS011;1025;42.686;23.350;2022-12-20T06:32:32;7.97;;;7.20;;
2039;SDS011;1025;42.686;23.350;2022-12-20T06:34:58;8.13;;;7.43;;
2039;SDS011;1025;42.686;23.350;2022-12-20T06:37:25;7.13;;;6.40;;
2039;SDS011;1025;42.686;23.350;2022-12-20T06:39:51;8.30;;;7.50;;
2039;SDS011;1025;42.686;23.350;2022-12-20T06:42:18;7.47;;;6.88;;
2039;SDS011;1025;42.686;23.350;2022-12-20T06:44:46;8.60;;;7.80;;
2039;SDS011;1025;42.686;23.350;2022-12-20T06:47:13;9.10;;;8.27;;
2039;SDS011;1025;42.686;23.350;2022-12-20T06:49:39;6.33;;;5.80;;
2039;SDS011;1025;42.686;23.350;2022-12-20T06:52:06;5.72;;;5.32;;
2039;SDS011;1025;42.686;23.350;2022-12-20T06:54:32;6.47;;;5.97;;
2039;SDS011;1025;42.686;23.350;2022-12-20T06:56:59;6.28;;;5.78;;
2039;SDS011;1025;42.686;23.350;2022-12-20T06:59:25;6.73;;;6.00;;
2039;SDS011;1025;42.686;23.350;2022-12-20T07:01:53;9.03;;;8.33;;
2039;SDS011;1025;42.686;23.350;2022-12-20T07:04:20;8.15;;;7.20;;
2039;SDS011;1025;42.686;23.350;2022-12-20T07:06:46;7.43;;;6.13;;
2039;SDS011;1025;42.686;23.350;2022-12-20T07:09:13;9.27;;;7.43;;
2039;SDS011;1025;42.686;23.350;2022-12-20T07:11:39;6.67;;;6.10;;
2039;SDS011;1025;42.686;23.350;2022-12-20T07:14:07;7.30;;;6.50;;
2039;SDS011;1025;42.686;23.350;2022-12-20T07:16:34;9.03;;;6.93;;
2039;SDS011;1025;42.686;23.350;2022-12-20T07:19:02;8.65;;;7.35;;
2039;SDS011;1025;42.686;23.350;2022-12-20T07:21:29;10.23;;;7.80;;
2039;SDS011;1025;42.686;23.350;2022-12-20T07:23:55;7.70;;;6.90;;
2039;SDS011;1025;42.686;23.350;2022-12-20T07:26:22;6.43;;;5.93;;
2039;SDS011;1025;42.686;23.350;2022-12-20T07:28:49;5.37;;;4.93;;
2039;SDS011;1025;42.686;23.350;2022-12-20T07:31:15;9.00;;;8.30;;
2039;SDS011;1025;42.686;23.350;2022-12-20T07:33:42;7.17;;;6.63;;
2039;SDS011;1025;42.686;23.350;2022-12-20T07:36:10;10.30;;;7.93;;
2039;SDS011;1025;42.686;23.350;2022-12-20T07:38:37;7.47;;;6.63;;
2039;SDS011;1025;42.686;23.350;2022-12-20T07:41:05;6.13;;;5.73;;
2039;SDS011;1025;42.686;23.350;2022-12-20T07:43:32;6.33;;;5.83;;
2039;SDS011;1025;42.686;23.350;2022-12-20T07:45:59;6.60;;;6.10;;
2039;SDS011;1025;42.686;23.350;2022-12-20T07:48:26;6.23;;;5.80;;
2039;SDS011;1025;42.686;23.350;2022-12-20T07:50:54;5.73;;;5.37;;
2039;SDS011;1025;42.686;23.350;2022-12-20T07:53:24;5.27;;;4.87;;
2039;SDS011;1025;42.686;23.350;2022-12-20T07:55:52;5.97;;;5.57;;
2039;SDS011;1025;42.686;23.350;2022-12-20T07:58:19;10.47;;;6.30;;
2039;SDS011;1025;42.686;23.350;2022-12-20T08:00:46;6.60;;;6.10;;
2039;SDS011;1025;42.686;23.350;2022-12-20T08:03:13;10.77;;;5.77;;
2039;SDS011;1025;42.686;23.350;2022-12-20T08:05:42;6.67;;;6.17;;
2039;SDS011;1025;42.686;23.350;2022-12-20T08:08:09;4.00;;;3.80;;
2039;SDS011;1025;42.686;23.350;2022-12-20T08:10:37;3.93;;;3.73;;
2039;SDS011;1025;42.686;23.350;2022-12-20T08:13:04;5.63;;;5.13;;
2039;SDS011;1025;42.686;23.350;2022-12-20T08:15:31;5.80;;;5.40;;
2039;SDS011;1025;42.686;23.350;2022-12-20T08:17:59;7.63;;;5.33;;
2039;SDS011;1025;42.686;23.350;2022-12-20T08:20:25;4.83;;;4.53;;
2039;SDS011;1025;42.686;23.350;2022-12-20T08:22:52;5.03;;;4.57;;
2039;SDS011;1025;42.686;23.350;2022-12-20T08:25:18;5.77;;;5.47;;
2039;SDS011;1025;42.686;23.350;2022-12-20T08:27:47;6.00;;;5.40;;
2039;SDS011;1025;42.686;23.350;2022-12-20T08:30:13;6.63;;;4.73;;
2039;SDS011;1025;42.686;23.350;2022-12-20T08:32:40;6.50;;;5.93;;
2039;SDS011;1025;42.686;23.350;2022-12-20T08:35:07;4.70;;;4.40;;
2039;SDS011;1025;42.686;23.350;2022-12-20T08:37:33;6.50;;;6.00;;
2039;SDS011;1025;42.686;23.350;2022-12-20T08:40:00;5.30;;;4.97;;
2039;SDS011;1025;42.686;23.350;2022-12-20T08:42:27;7.33;;;5.47;;
2039;SDS011;1025;42.686;23.350;2022-12-20T08:44:54;7.87;;;5.47;;
2039;SDS011;1025;42.686;23.350;2022-12-20T08:47:21;5.13;;;4.40;;
2039;SDS011;1025;42.686;23.350;2022-12-20T08:49:48;4.67;;;4.40;;
2039;SDS011;1025;42.686;23.350;2022-12-20T08:52:14;6.93;;;6.40;;
2039;SDS011;1025;42.686;23.350;2022-12-20T08:54:41;5.07;;;4.67;;
2039;SDS011;1025;42.686;23.350;2022-12-20T08:57:07;4.47;;;4.17;;
2039;SDS011;1025;42.686;23.350;2022-12-20T08:59:34;8.33;;;4.30;;
2039;SDS011;1025;42.686;23.350;2022-12-20T09:02:02;4.97;;;4.57;;
2039;SDS011;1025;42.686;23.350;2022-12-20T09:04:29;5.30;;;4.90;;
2039;SDS011;1025;42.686;23.350;2022-12-20T09:06:55;6.97;;;6.27;;
2039;SDS011;1025;42.686;23.350;2022-12-20T09:09:22;6.70;;;5.53;;
2039;SDS011;1025;42.686;23.350;2022-12-20T09:11:48;4.13;;;3.93;;
2039;SDS011;1025;42.686;23.350;2022-12-20T09:14:15;4.80;;;4.50;;
2039;SDS011;1025;42.686;23.350;2022-12-20T09:16:41;9.10;;;5.60;;
2039;SDS011;1025;42.686;23.350;2022-12-20T09:19:10;12.30;;;5.33;;
2039;SDS011;1025;42.686;23.350;2022-12-20T09:21:37;4.80;;;4.50;;
2039;SDS011;1025;42.686;23.350;2022-12-20T09:24:04;6.73;;;5.20;;
2039;SDS011;1025;42.686;23.350;2022-12-20T09:26:31;5.13;;;4.73;;
2039;SDS011;1025;42.686;23.350;2022-12-20T09:28:59;5.03;;;4.70;;
2039;SDS011;1025;42.686;23.350;2022-12-20T09:31:26;7.23;;;6.33;;
2039;SDS011;1025;42.686;23.350;2022-12-20T09:33:53;5.97;;;5.47;;
2039;SDS011;1025;42.686;23.350;2022-12-20T09:36:22;6.53;;;5.93;;
2039;SDS011;1025;42.686;23.350;2022-12-20T09:38:49;5.60;;;4.80;;
2039;SDS011;1025;42.686;23.350;2022-12-20T09:41:21;5.83;;;5.23;;
2039;SDS011;1025;42.686;23.350;2022-12-20T09:43:48;4.77;;;4.47;;
2039;SDS011;1025;42.686;23.350;2022-12-20T09:46:15;4.70;;;4.10;;
2039;SDS011;1025;42.686;23.350;2022-12-20T09:48:42;5.90;;;4.80;;
2039;SDS011;1025;42.686;23.350;2022-12-20T09:51:11;4.67;;;4.37;;
2039;SDS011;1025;42.686;23.350;2022-12-20T09:53:43;4.87;;;4.60;;
2039;SDS011;1025;42.686;23.350;2022-12-20T09:56:17;5.67;;;5.37;;
2039;SDS011;1025;42.686;23.350;2022-12-20T09:58:56;7.60;;;5.10;;
2039;SDS011;1025;42.686;23.350;2022-12-20T10:01:24;5.00;;;4.80;;
2039;SDS011;1025;42.686;23.350;2022-12-20T10:03:52;4.20;;;4.00;;
2039;SDS011;1025;42.686;23.350;2022-12-20T10:06:21;5.03;;;4.63;;
2039;SDS011;1025;42.686;23.350;2022-12-20T10:08:56;5.40;;;5.00;;
2039;SDS011;1025;42.686;23.350;2022-12-20T10:11:35;6.40;;;4.93;;
2039;SDS011;1025;42.686;23.350;2022-12-20T10:14:06;5.20;;;4.70;;
2039;SDS011;1025;42.686;23.350;2022-12-20T10:16:38;6.93;;;5.80;;
2039;SDS011;1025;42.686;23.350;2022-12-20T10:19:13;5.87;;;4.60;;
2039;SDS011;1025;42.686;23.350;2022-12-20T10:21:44;6.20;;;5.60;;
2039;SDS011;1025;42.686;23.350;2022-12-20T10:24:15;5.13;;;4.77;;
2039;SDS011;1025;42.686;23.350;2022-12-20T10:26:42;4.70;;;4.40;;
2039;SDS011;1025;42.686;23.350;2022-12-20T10:29:09;7.90;;;5.20;;
2039;SDS011;1025;42.686;23.350;2022-12-20T10:31:36;5.40;;;5.10;;
2039;SDS011;1025;42.686;23.350;2022-12-20T10:34:03;5.97;;;5.47;;
2039;SDS011;1025;42.686;23.350;2022-12-20T10:36:32;6.70;;;4.20;;
2039;SDS011;1025;42.686;23.350;2022-12-20T10:39:00;7.23;;;4.87;;
2039;SDS011;1025;42.686;23.350;2022-12-20T10:41:30;4.50;;;4.10;;
2039;SDS011;1025;42.686;23.350;2022-12-20T10:43:58;6.57;;;6.00;;
2039;SDS011;1025;42.686;23.350;2022-12-20T10:46:33;3.53;;;3.33;;
2039;SDS011;1025;42.686;23.350;2022-12-20T10:49:03;3.67;;;3.47;;
2039;SDS011;1025;42.686;23.350;2022-12-20T10:51:50;4.80;;;4.50;;
2039;SDS011;1025;42.686;23.350;2022-12-20T10:54:19;5.20;;;4.70;;
2039;SDS011;1025;42.686;23.350;2022-12-20T10:56:50;4.70;;;4.40;;
2039;SDS011;1025;42.686;23.350;2022-12-20T10:59:22;4.67;;;4.37;;
2039;SDS011;1025;42.686;23.350;2022-12-20T11:01:51;4.77;;;4.47;;
2039;SDS011;1025;42.686;23.350;2022-12-20T11:04:22;5.63;;;5.13;;
2039;SDS011;1025;42.686;23.350;2022-12-20T11:06:50;5.50;;;4.93;;
2039;SDS011;1025;42.686;23.350;2022-12-20T11:09:22;3.93;;;3.60;;
2039;SDS011;1025;42.686;23.350;2022-12-20T11:12:04;4.13;;;3.90;;
2039;SDS011;1025;42.686;23.350;2022-12-20T11:14:31;3.70;;;3.50;;
2039;SDS011;1025;42.686;23.350;2022-12-20T11:16:59;3.37;;;3.17;;
2039;SDS011;1025;42.686;23.350;2022-12-20T11:19:32;3.97;;;3.70;;
2039;SDS011;1025;42.686;23.350;2022-12-20T11:22:03;4.23;;;3.83;;
2039;SDS011;1025;42.686;23.350;2022-12-20T11:24:32;4.97;;;4.57;;
2039;SDS011;1025;42.686;23.350;2022-12-20T11:27:08;3.77;;;3.57;;
2039;SDS011;1025;42.686;23.350;2022-12-20T11:32:25;4.33;;;3.90;;
2039;SDS011;1025;42.686;23.350;2022-12-20T11:34:56;4.40;;;4.20;;
2039;SDS011;1025;42.686;23.350;2022-12-20T11:37:29;8.70;;;3.80;;
2039;SDS011;1025;42.686;23.350;2022-12-20T11:40:10;5.33;;;4.90;;
2039;SDS011;1025;42.686;23.350;2022-12-20T11:42:46;3.67;;;3.47;;
2039;SDS011;1025;42.686;23.350;2022-12-20T11:45:17;4.83;;;4.20;;
2039;SDS011;1025;42.686;23.350;2022-12-20T11:47:52;2.73;;;2.63;;
2039;SDS011;1025;42.686;23.350;2022-12-20T11:50:30;5.30;;;4.80;;
2039;SDS011;1025;42.686;23.350;2022-12-20T11:53:00;3.30;;;3.10;;
2039;SDS011;1025;42.686;23.350;2022-12-20T11:55:27;4.87;;;4.57;;
2039;SDS011;1025;42.686;23.350;2022-12-20T11:57:58;3.93;;;3.63;;
2039;SDS011;1025;42.686;23.350;2022-12-20T12:00:27;4.53;;;3.27;;
2039;SDS011;1025;42.686;23.350;2022-12-20T12:02:56;3.23;;;3.00;;
2039;SDS011;1025;42.686;23.350;2022-12-20T12:05:25;3.53;;;3.33;;
2039;SDS011;1025;42.686;23.350;2022-12-20T12:07:55;5.07;;;4.67;;
2039;SDS011;1025;42.686;23.350;2022-12-20T12:10:24;10.37;;;5.63;;
2039;SDS011;1025;42.686;23.350;2022-12-20T12:12:54;12.00;;;3.70;;
2039;SDS011;1025;42.686;23.350;2022-12-20T12:15:25;13.33;;;6.27;;
2039;SDS011;1025;42.686;23.350;2022-12-20T12:17:55;3.90;;;3.70;;
2039;SDS011;1025;42.686;23.350;2022-12-20T12:20:27;2.93;;;2.73;;
2039;SDS011;1025;42.686;23.350;2022-12-20T12:22:58;3.97;;;3.57;;
2039;SDS011;1025;42.686;23.350;2022-12-20T12:25:28;3.73;;;3.50;;
2039;SDS011;1025;42.686;23.350;2022-12-20T12:27:54;2.90;;;2.80;;
2039;SDS011;1025;42.686;23.350;2022-12-20T12:30:22;4.70;;;4.30;;
2039;SDS011;1025;42.686;23.350;2022-12-20T12:32:51;6.50;;;5.17;;
2039;SDS011;1025;42.686;23.350;2022-12-20T12:35:24;6.57;;;3.97;;
2039;SDS011;1025;42.686;23.350;2022-12-20T12:38:03;4.13;;;3.73;;
2039;SDS011;1025;42.686;23.350;2022-12-20T12:40:37;3.47;;;3.27;;
2039;SDS011;1025;42.686;23.350;2022-12-20T12:43:21;4.80;;;3.00;;
2039;SDS011;1025;42.686;23.350;2022-12-20T12:45:53;3.70;;;3.40;;
2039;SDS011;1025;42.686;23.350;2022-12-20T12:48:22;3.40;;;3.10;;
2039;SDS011;1025;42.686;23.350;2022-12-20T12:50:51;4.23;;;2.90;;
2039;SDS011;1025;42.686;23.350;2022-12-20T12:53:19;2.90;;;2.80;;
2039;SDS011;1025;42.686;23.350;2022-12-20T12:55:48;4.03;;;3.77;;
2039;SDS011;1025;42.686;23.350;2022-12-20T13:00:58;5.40;;;3.43;;
2039;SDS011;1025;42.686;23.350;2022-12-20T13:03:35;3.10;;;2.90;;
2039;SDS011;1025;42.686;23.350;2022-12-20T13:08:47;4.43;;;3.20;;
2039;SDS011;1025;42.686;23.350;2022-12-20T13:11:27;3.27;;;3.07;;
2039;SDS011;1025;42.686;23.350;2022-12-20T13:16:37;3.07;;;2.87;;
2039;SDS011;1025;42.686;23.350;2022-12-20T13:19:12;3.40;;;3.30;;
2039;SDS011;1025;42.686;23.350;2022-12-20T13:21:40;8.30;;;4.27;;
2039;SDS011;1025;42.686;23.350;2022-12-20T13:29:53;3.10;;;3.00;;
2039;SDS011;1025;42.686;23.350;2022-12-20T13:35:12;3.93;;;3.63;;
2039;SDS011;1025;42.686;23.350;2022-12-20T13:37:53;5.93;;;5.63;;
2039;SDS011;1025;42.686;23.350;2022-12-20T13:40:22;3.27;;;3.07;;
2039;SDS011;1025;42.686;23.350;2022-12-20T13:42:50;2.93;;;2.73;;
2039;SDS011;1025;42.686;23.350;2022-12-20T13:45:19;2.50;;;2.40;;
2039;SDS011;1025;42.686;23.350;2022-12-20T13:47:46;4.13;;;3.40;;
2039;SDS011;1025;42.686;23.350;2022-12-20T13:53:01;2.30;;;2.20;;
2039;SDS011;1025;42.686;23.350;2022-12-20T13:55:35;3.50;;;3.30;;
2039;SDS011;1025;42.686;23.350;2022-12-20T13:58:03;3.30;;;3.10;;
2039;SDS011;1025;42.686;23.350;2022-12-20T14:00:30;2.17;;;2.07;;
2039;SDS011;1025;42.686;23.350;2022-12-20T14:02:57;5.03;;;3.00;;
2039;SDS011;1025;42.686;23.350;2022-12-20T14:05:26;2.57;;;2.47;;
2039;SDS011;1025;42.686;23.350;2022-12-20T14:07:57;5.17;;;3.97;;
2039;SDS011;1025;42.686;23.350;2022-12-20T14:10:26;3.33;;;3.17;;
2039;SDS011;1025;42.686;23.350;2022-12-20T14:12:53;2.37;;;2.17;;
2039;SDS011;1025;42.686;23.350;2022-12-20T14:15:21;1.90;;;1.80;;
2039;SDS011;1025;42.686;23.350;2022-12-20T14:17:48;2.70;;;2.40;;
2039;SDS011;1025;42.686;23.350;2022-12-20T14:20:15;3.10;;;2.80;;
2039;SDS011;1025;42.686;23.350;2022-12-20T14:22:45;2.17;;;2.07;;
2039;SDS011;1025;42.686;23.350;2022-12-20T14:25:14;2.07;;;1.97;;
2039;SDS011;1025;42.686;23.350;2022-12-20T14:27:43;3.00;;;2.80;;
2039;SDS011;1025;42.686;23.350;2022-12-20T14:30:23;2.27;;;2.17;;
2039;SDS011;1025;42.686;23.350;2022-12-20T14:32:51;2.60;;;2.50;;
2039;SDS011;1025;42.686;23.350;2022-12-20T14:35:18;3.17;;;2.97;;
2039;SDS011;1025;42.686;23.350;2022-12-20T14:37:51;2.93;;;2.50;;
2039;SDS011;1025;42.686;23.350;2022-12-20T14:40:18;2.73;;;2.63;;
2039;SDS011;1025;42.686;23.350;2022-12-20T14:42:47;2.43;;;2.33;;
2039;SDS011;1025;42.686;23.350;2022-12-20T14:45:18;3.07;;;2.87;;
2039;SDS011;1025;42.686;23.350;2022-12-20T14:47:49;3.40;;;2.97;;
2039;SDS011;1025;42.686;23.350;2022-12-20T14:50:16;3.47;;;3.17;;
2039;SDS011;1025;42.686;23.350;2022-12-20T14:52:43;3.50;;;3.37;;
2039;SDS011;1025;42.686;23.350;2022-12-20T14:55:13;4.37;;;4.00;;
2039;SDS011;1025;42.686;23.350;2022-12-20T14:57:42;4.73;;;3.57;;
2039;SDS011;1025;42.686;23.350;2022-12-20T15:00:14;3.77;;;3.50;;
2039;SDS011;1025;42.686;23.350;2022-12-20T15:02:41;4.20;;;3.90;;
2039;SDS011;1025;42.686;23.350;2022-12-20T15:08:08;5.60;;;5.10;;
2039;SDS011;1025;42.686;23.350;2022-12-20T15:10:34;4.47;;;4.20;;
2039;SDS011;1025;42.686;23.350;2022-12-20T15:13:01;6.70;;;6.10;;
2039;SDS011;1025;42.686;23.350;2022-12-20T15:15:29;3.80;;;3.50;;
2039;SDS011;1025;42.686;23.350;2022-12-20T15:17:56;4.60;;;4.30;;
2039;SDS011;1025;42.686;23.350;2022-12-20T15:20:22;4.20;;;4.00;;
2039;SDS011;1025;42.686;23.350;2022-12-20T15:22:49;5.93;;;5.53;;
2039;SDS011;1025;42.686;23.350;2022-12-20T15:25:16;5.40;;;5.00;;
2039;SDS011;1025;42.686;23.350;2022-12-20T15:27:42;5.93;;;4.53;;
2039;SDS011;1025;42.686;23.350;2022-12-20T15:30:10;5.80;;;5.40;;
2039;SDS011;1025;42.686;23.350;2022-12-20T15:32:39;7.80;;;5.80;;